Time;durP1;ratioP1;P1;durP2;ratioP2;P2;SDS_P1;SDS_P2;PMS_P1;PMS_P2;Temp;Humidity;BMP_temperature;BMP_pressure;BME280_temperature;BME280_humidity;BME280_pressure;Samples;Min_cycle;Max_cycle;Signal;HPM_P1;HPM_P2
2022/03/13 00:00:39;;;;;;;22.90;15.20;;;2.30;91.70;;;;;;5069880;28;20532;-73
2022/03/13 00:03:10;;;;;;;21.67;14.40;;;2.20;91.70;;;;;;5062045;28;20208;-74
2022/03/13 00:05:38;;;;;;;18.95;14.27;;;2.10;91.80;;;;;;5069284;28;20232;-74
2022/03/13 00:08:16;;;;;;;21.65;15.02;;;2.10;91.90;;;;;;5068692;28;20208;-74
2022/03/13 00:10:47;;;;;;;20.27;13.80;;;2.00;92.00;;;;;;5068882;28;20686;-74
2022/03/13 00:13:17;;;;;;;20.67;14.40;;;1.90;92.00;;;;;;5071345;28;20200;-73
2022/03/13 00:15:44;;;;;;;20.75;14.15;;;1.90;92.10;;;;;;5072488;28;20274;-74
2022/03/13 00:18:13;;;;;;;20.77;14.35;;;1.90;92.20;;;;;;5072108;28;20204;-74
2022/03/13 00:20:40;;;;;;;22.63;15.80;;;1.90;92.20;;;;;;5072617;28;20214;-73
2022/03/13 00:23:07;;;;;;;18.55;13.35;;;1.90;92.20;;;;;;5072891;28;20243;-74
2022/03/13 00:25:34;;;;;;;23.50;15.48;;;2.00;92.30;;;;;;5072302;28;20239;-74
2022/03/13 00:28:01;;;;;;;20.38;14.07;;;1.90;92.20;;;;;;5072058;28;20211;-74
2022/03/13 00:30:28;;;;;;;21.67;15.27;;;1.90;92.20;;;;;;5072360;28;20230;-74
2022/03/13 00:32:54;;;;;;;21.40;14.73;;;1.90;92.20;;;;;;5072221;28;20204;-74
2022/03/13 00:35:22;;;;;;;20.83;13.77;;;1.80;92.10;;;;;;5072550;28;20231;-74
2022/03/13 00:37:49;;;;;;;22.88;14.70;;;1.80;92.10;;;;;;5071608;28;20702;-74
2022/03/13 00:40:16;;;;;;;22.17;15.30;;;1.80;92.20;;;;;;5072463;28;20364;-74
2022/03/13 00:42:42;;;;;;;21.65;14.45;;;1.80;92.30;;;;;;5072348;28;20204;-73
2022/03/13 00:45:10;;;;;;;25.63;13.13;;;1.70;92.40;;;;;;5072218;28;20234;-74
2022/03/13 00:47:37;;;;;;;17.52;13.23;;;1.70;92.40;;;;;;5071591;28;20227;-73
2022/03/13 00:50:04;;;;;;;20.15;14.00;;;1.70;92.30;;;;;;5071924;28;20248;-74
2022/03/13 00:52:32;;;;;;;18.05;13.88;;;1.70;92.40;;;;;;5072556;28;20215;-74
2022/03/13 00:54:59;;;;;;;19.90;12.95;;;1.60;92.10;;;;;;5071892;28;20227;-73
2022/03/13 00:57:26;;;;;;;17.25;12.77;;;1.60;92.00;;;;;;5071359;28;20216;-73
2022/03/13 00:59:53;;;;;;;19.98;12.20;;;1.60;92.00;;;;;;5072103;28;20200;-74
2022/03/13 01:02:20;;;;;;;17.30;12.15;;;1.60;91.90;;;;;;5071289;28;20208;-73
2022/03/13 01:04:46;;;;;;;19.30;12.65;;;1.50;91.80;;;;;;5072091;28;20220;-74
2022/03/13 01:07:15;;;;;;;19.50;12.15;;;1.40;91.90;;;;;;5072003;28;20208;-74
2022/03/13 01:09:43;;;;;;;16.77;12.07;;;1.40;91.80;;;;;;5071588;28;20224;-72
2022/03/13 01:12:11;;;;;;;18.27;13.30;;;1.40;91.80;;;;;;5072456;28;20204;-73
2022/03/13 01:14:37;;;;;;;25.00;14.70;;;1.40;91.70;;;;;;5071583;28;20252;-72
2022/03/13 01:17:07;;;;;;;23.58;13.63;;;1.40;92.20;;;;;;5071144;28;20204;-73
2022/03/13 01:19:34;;;;;;;19.52;13.45;;;1.30;92.20;;;;;;5072031;28;20196;-73
2022/03/13 01:22:01;;;;;;;18.75;14.00;;;1.30;92.40;;;;;;5071562;28;20212;-73
2022/03/13 01:24:31;;;;;;;18.92;13.43;;;1.20;92.50;;;;;;5070939;28;20228;-73
2022/03/13 01:27:02;;;;;;;18.70;13.75;;;1.20;92.10;;;;;;5071499;28;20246;-73
2022/03/13 01:29:29;;;;;;;17.83;13.15;;;1.20;92.30;;;;;;5071779;28;20370;-74
2022/03/13 01:31:56;;;;;;;19.52;13.23;;;1.10;92.20;;;;;;5071018;28;20204;-73
2022/03/13 01:34:49;;;;;;;17.15;11.95;;;1.10;92.20;;;;;;5071039;28;20588;-73
2022/03/13 01:37:21;;;;;;;17.10;11.38;;;1.00;92.20;;;;;;5071092;28;20205;-73
2022/03/13 01:39:49;;;;;;;20.52;13.43;;;1.00;92.00;;;;;;5070941;28;20250;-73
2022/03/13 01:42:17;;;;;;;18.20;12.82;;;1.10;92.00;;;;;;5071572;28;20228;-73
2022/03/13 01:44:44;;;;;;;16.45;11.68;;;1.00;92.10;;;;;;5070765;28;20311;-73
2022/03/13 01:47:11;;;;;;;15.90;11.20;;;1.00;92.00;;;;;;5070532;28;20204;-73
2022/03/13 01:49:37;;;;;;;16.17;11.73;;;0.90;91.90;;;;;;5070938;28;20224;-73
2022/03/13 01:52:05;;;;;;;23.08;11.95;;;1.00;91.90;;;;;;5071181;28;20574;-73
2022/03/13 01:54:31;;;;;;;17.05;10.88;;;0.90;91.90;;;;;;5070743;28;20223;-72
2022/03/13 01:56:59;;;;;;;16.95;11.32;;;0.90;91.70;;;;;;5069901;28;20586;-73
2022/03/13 01:59:29;;;;;;;17.73;10.95;;;0.90;91.90;;;;;;5071053;28;20287;-72
2022/03/13 02:01:57;;;;;;;18.50;10.55;;;0.90;91.20;;;;;;5070679;28;20244;-73
2022/03/13 02:04:26;;;;;;;19.02;12.55;;;1.00;91.30;;;;;;5070716;28;20216;-73
2022/03/13 02:06:55;;;;;;;18.42;10.95;;;0.90;91.30;;;;;;5069595;28;20258;-73
2022/03/13 02:09:23;;;;;;;17.45;11.25;;;0.90;91.30;;;;;;5070181;28;20228;-73
2022/03/13 02:11:51;;;;;;;14.73;10.20;;;0.90;91.50;;;;;;5070548;28;20205;-73
2022/03/13 02:14:22;;;;;;;16.42;10.43;;;0.90;91.60;;;;;;5070327;28;20231;-73
2022/03/13 02:16:51;;;;;;;21.73;11.65;;;0.90;91.50;;;;;;5069434;28;20240;-73
2022/03/13 02:19:18;;;;;;;16.45;11.20;;;0.90;91.20;;;;;;5070571;28;20193;-73
2022/03/13 02:21:50;;;;;;;17.52;10.55;;;0.90;91.00;;;;;;5070055;28;20275;-73
2022/03/13 02:24:22;;;;;;;13.52;9.73;;;0.80;90.80;;;;;;5070419;28;20224;-73
2022/03/13 02:26:58;;;;;;;18.67;11.90;;;0.80;90.70;;;;;;5069566;28;20626;-73
2022/03/13 02:29:25;;;;;;;12.55;10.25;;;0.80;90.70;;;;;;5070106;28;20247;-73
2022/03/13 02:31:52;;;;;;;19.00;10.52;;;0.80;90.70;;;;;;5070278;28;20200;-73
2022/03/13 02:34:20;;;;;;;19.85;11.38;;;0.70;90.90;;;;;;5069810;28;20220;-72
2022/03/13 02:37:03;;;;;;;16.08;11.02;;;0.60;91.10;;;;;;5068915;28;20584;-73
2022/03/13 02:39:36;;;;;;;15.13;10.98;;;0.60;91.20;;;;;;5069650;28;20196;-73
2022/03/13 02:42:05;;;;;;;22.00;12.75;;;0.60;91.20;;;;;;5070350;28;20204;-73
2022/03/13 02:44:31;;;;;;;15.55;10.30;;;0.70;91.60;;;;;;5069677;28;20228;-73
2022/03/13 02:47:01;;;;;;;14.07;10.68;;;0.60;91.40;;;;;;5069297;28;20204;-73
2022/03/13 02:49:29;;;;;;;13.18;10.13;;;0.50;91.40;;;;;;5071522;28;20231;-73
2022/03/13 02:51:59;;;;;;;16.83;11.50;;;0.50;91.50;;;;;;5072475;28;20200;-73
2022/03/13 02:54:26;;;;;;;15.02;10.55;;;0.50;91.50;;;;;;5070436;28;20224;-73
2022/03/13 02:56:54;;;;;;;13.82;10.45;;;0.50;91.40;;;;;;5068833;28;20227;-73
2022/03/13 02:59:21;;;;;;;13.95;10.50;;;0.50;91.30;;;;;;5069618;28;20199;-73
2022/03/13 03:01:49;;;;;;;17.08;11.30;;;0.50;91.30;;;;;;5069682;28;20200;-73
2022/03/13 03:04:16;;;;;;;16.30;12.25;;;0.50;91.30;;;;;;5069571;28;20228;-72
2022/03/13 03:06:52;;;;;;;15.85;10.43;;;0.40;91.20;;;;;;5069398;28;20212;-72
2022/03/13 03:09:19;;;;;;;16.10;11.40;;;0.40;91.40;;;;;;5070010;28;20227;-73
2022/03/13 03:11:46;;;;;;;15.18;10.70;;;0.30;91.50;;;;;;5069437;28;20211;-73
2022/03/13 03:14:15;;;;;;;13.82;9.40;;;0.40;91.50;;;;;;5069717;28;20707;-73
2022/03/13 03:16:42;;;;;;;15.98;10.20;;;0.40;91.40;;;;;;5068968;28;20209;-72
2022/03/13 03:19:08;;;;;;;12.65;9.30;;;0.40;91.40;;;;;;5070008;28;20207;-73
2022/03/13 03:21:38;;;;;;;17.10;11.13;;;0.40;91.30;;;;;;5069259;28;20205;-73
2022/03/13 03:24:15;;;;;;;15.80;11.05;;;0.40;91.30;;;;;;5069643;28;20307;-73
2022/03/13 03:26:43;;;;;;;15.00;11.40;;;0.30;91.60;;;;;;5069035;28;20204;-72
2022/03/13 03:29:10;;;;;;;17.83;10.85;;;0.40;91.40;;;;;;5069304;28;20220;-74
2022/03/13 03:31:42;;;;;;;19.17;11.52;;;0.40;91.50;;;;;;5069607;28;20715;-73
2022/03/13 03:34:11;;;;;;;17.17;11.23;;;0.40;91.50;;;;;;5069380;28;20726;-74
2022/03/13 03:36:46;;;;;;;17.80;11.57;;;0.40;91.50;;;;;;5068779;28;20204;-73
2022/03/13 03:39:13;;;;;;;17.85;11.38;;;0.30;91.50;;;;;;5069785;28;20203;-74
2022/03/13 03:41:41;;;;;;;17.45;12.40;;;0.30;91.50;;;;;;5069547;28;20564;-73
2022/03/13 03:44:08;;;;;;;15.43;10.50;;;0.20;91.50;;;;;;5068954;28;20730;-74
2022/03/13 03:46:35;;;;;;;15.60;9.80;;;0.20;91.60;;;;;;5068759;28;20208;-74
2022/03/13 03:49:04;;;;;;;15.48;11.13;;;0.20;91.40;;;;;;5073176;28;20208;-73
2022/03/13 03:51:31;;;;;;;16.33;10.90;;;0.30;91.40;;;;;;5072819;28;20588;-74
2022/03/13 03:53:58;;;;;;;18.80;10.57;;;0.30;91.60;;;;;;5073268;28;20214;-74
2022/03/13 03:56:25;;;;;;;12.77;10.45;;;0.20;91.60;;;;;;5073214;28;20231;-74
2022/03/13 03:58:52;;;;;;;22.48;12.35;;;0.20;91.80;;;;;;5072362;28;20196;-73
2022/03/13 04:01:19;;;;;;;19.85;12.50;;;0.10;91.90;;;;;;5073548;28;20193;-73
2022/03/13 04:03:46;;;;;;;20.75;13.18;;;0.10;91.90;;;;;;5072459;28;20200;-74
2022/03/13 04:06:15;;;;;;;15.90;11.10;;;0.00;92.10;;;;;;5071273;28;20219;-74
2022/03/13 04:08:42;;;;;;;17.15;11.80;;;0.00;92.10;;;;;;5072456;28;20269;-73
2022/03/13 04:11:09;;;;;;;19.35;12.70;;;0.00;92.20;;;;;;5073152;28;20224;-74
2022/03/13 04:13:38;;;;;;;16.77;11.57;;;0.00;92.30;;;;;;5073008;28;20663;-72
2022/03/13 04:16:07;;;;;;;20.60;12.85;;;0.00;92.70;;;;;;5072217;28;20780;-74
2022/03/13 04:18:34;;;;;;;17.50;11.65;;;0.00;92.70;;;;;;5072303;28;20197;-74
2022/03/13 04:21:03;;;;;;;15.27;11.15;;;0.00;92.80;;;;;;5072549;28;20197;-73
2022/03/13 04:23:32;;;;;;;19.77;12.07;;;0.00;92.80;;;;;;5072752;28;20204;-73
2022/03/13 04:25:58;;;;;;;16.75;12.10;;;0.00;93.10;;;;;;5072459;28;20228;-73
2022/03/13 04:28:25;;;;;;;18.13;10.98;;;-0.10;93.20;;;;;;5071976;28;20205;-73
2022/03/13 04:30:57;;;;;;;18.38;12.07;;;-0.10;93.20;;;;;;5072596;28;20232;-74
2022/03/13 04:33:25;;;;;;;19.73;11.63;;;-0.10;93.20;;;;;;5072641;28;20289;-73
2022/03/13 04:35:56;;;;;;;21.00;13.32;;;-0.10;93.30;;;;;;5072082;28;20220;-74
2022/03/13 04:38:24;;;;;;;18.00;12.10;;;-0.10;93.20;;;;;;5072119;28;20211;-74
2022/03/13 04:40:52;;;;;;;15.95;11.18;;;-0.10;93.20;;;;;;5072184;28;20228;-74
2022/03/13 04:43:20;;;;;;;19.15;11.95;;;-0.10;93.30;;;;;;5072501;28;20196;-74
2022/03/13 04:45:48;;;;;;;19.38;12.10;;;-0.10;93.20;;;;;;5071942;28;20714;-74
2022/03/13 04:48:15;;;;;;;19.08;12.13;;;-0.10;93.10;;;;;;5071461;28;20208;-74
2022/03/13 04:50:42;;;;;;;15.95;11.95;;;-0.10;93.10;;;;;;5071825;28;20296;-73
2022/03/13 04:53:09;;;;;;;20.35;11.93;;;0.00;93.30;;;;;;5072451;28;20208;-73
2022/03/13 04:55:36;;;;;;;18.55;12.60;;;-0.10;93.40;;;;;;5072088;28;20216;-74
2022/03/13 04:58:04;;;;;;;19.13;11.18;;;-0.20;93.50;;;;;;5071246;28;20208;-73
2022/03/13 05:00:32;;;;;;;15.20;11.05;;;-0.10;93.70;;;;;;5072786;28;20589;-73
2022/03/13 05:02:59;;;;;;;19.45;14.05;;;-0.10;93.80;;;;;;5072941;28;20204;-73
2022/03/13 05:05:26;;;;;;;18.27;12.45;;;-0.10;93.80;;;;;;5072692;28;20220;-73
2022/03/13 05:07:54;;;;;;;17.83;12.00;;;-0.10;93.80;;;;;;5071822;28;20204;-74
2022/03/13 05:10:21;;;;;;;20.02;12.65;;;-0.10;93.80;;;;;;5072235;28;20251;-73
2022/03/13 05:12:48;;;;;;;17.15;12.25;;;-0.20;93.90;;;;;;5071531;28;20211;-73
2022/03/13 05:15:16;;;;;;;18.88;12.38;;;-0.20;94.00;;;;;;5071913;28;20782;-74
2022/03/13 05:17:43;;;;;;;18.58;13.38;;;-0.30;94.00;;;;;;5070927;28;20214;-74
2022/03/13 05:20:12;;;;;;;15.05;11.57;;;-0.30;94.00;;;;;;5071558;28;20686;-74
2022/03/13 05:22:38;;;;;;;21.73;12.88;;;-0.30;94.10;;;;;;5071757;28;20667;-72
2022/03/13 05:25:06;;;;;;;19.23;12.40;;;-0.30;94.20;;;;;;5071681;28;20231;-73
2022/03/13 05:27:33;;;;;;;23.55;12.23;;;-0.30;94.30;;;;;;5070694;28;20236;-73
2022/03/13 05:30:00;;;;;;;13.52;11.15;;;-0.30;94.10;;;;;;5071775;28;20208;-73
2022/03/13 05:32:29;;;;;;;19.67;13.20;;;-0.20;94.20;;;;;;5071907;28;20200;-74
2022/03/13 05:34:57;;;;;;;17.85;12.50;;;-0.20;94.20;;;;;;5070989;28;20235;-72
2022/03/13 05:37:24;;;;;;;20.50;13.27;;;-0.30;94.40;;;;;;5070944;28;20201;-74
2022/03/13 05:39:52;;;;;;;21.17;12.43;;;-0.30;94.40;;;;;;5071427;28;20207;-73
2022/03/13 05:42:24;;;;;;;15.77;12.13;;;-0.30;94.40;;;;;;5071390;28;20197;-73
2022/03/13 05:44:51;;;;;;;16.65;11.70;;;-0.30;94.50;;;;;;5071258;28;20235;-74
2022/03/13 05:47:18;;;;;;;19.17;12.70;;;-0.30;94.50;;;;;;5070751;28;20208;-73
2022/03/13 05:49:47;;;;;;;16.80;11.35;;;-0.40;94.50;;;;;;5070908;28;20590;-74
2022/03/13 05:52:14;;;;;;;17.80;12.00;;;-0.40;94.90;;;;;;5070981;28;20223;-74
2022/03/13 05:54:42;;;;;;;17.67;12.70;;;-0.40;94.70;;;;;;5071129;28;20254;-74
2022/03/13 05:57:09;;;;;;;19.88;12.40;;;-0.30;94.80;;;;;;5070467;28;20205;-74
2022/03/13 05:59:36;;;;;;;20.23;12.00;;;-0.30;94.80;;;;;;5071007;28;20197;-72
2022/03/13 06:02:04;;;;;;;17.13;11.27;;;-0.30;94.90;;;;;;5071149;28;20196;-73
2022/03/13 06:04:32;;;;;;;21.35;12.18;;;-0.20;95.00;;;;;;5070308;28;20224;-72
2022/03/13 06:07:00;;;;;;;19.10;12.68;;;-0.20;95.00;;;;;;5070236;28;20208;-73
2022/03/13 06:09:27;;;;;;;19.52;11.93;;;-0.20;95.00;;;;;;5070404;28;20203;-74
2022/03/13 06:11:54;;;;;;;18.90;12.13;;;-0.10;95.00;;;;;;5069971;28;20216;-74
2022/03/13 06:14:22;;;;;;;18.80;12.15;;;-0.10;94.90;;;;;;5070810;28;20231;-74
2022/03/13 06:16:48;;;;;;;19.48;13.25;;;-0.10;94.90;;;;;;5069729;28;20698;-74
2022/03/13 06:19:15;;;;;;;19.15;13.00;;;-0.10;94.90;;;;;;5070238;28;20299;-74
2022/03/13 06:21:42;;;;;;;16.92;11.90;;;-0.10;95.00;;;;;;5070416;28;20783;-73
2022/03/13 06:24:10;;;;;;;15.68;11.88;;;-0.10;95.00;;;;;;5070237;28;20221;-74
2022/03/13 06:26:37;;;;;;;18.20;12.50;;;0.00;95.10;;;;;;5069962;28;20660;-73
2022/03/13 06:29:04;;;;;;;18.75;12.25;;;0.10;95.10;;;;;;5070140;28;20641;-73
2022/03/13 06:31:31;;;;;;;18.80;12.45;;;0.20;95.10;;;;;;5070505;28;20260;-73
2022/03/13 06:33:58;;;;;;;20.67;12.95;;;0.20;95.10;;;;;;5069615;28;20211;-74
2022/03/13 06:36:25;;;;;;;18.50;12.27;;;0.30;95.00;;;;;;5070643;28;20201;-74
2022/03/13 06:38:55;;;;;;;18.20;12.50;;;0.40;95.00;;;;;;5069743;28;20200;-73
2022/03/13 06:41:23;;;;;;;17.27;13.80;;;0.40;95.00;;;;;;5070148;28;20197;-73
2022/03/13 06:43:50;;;;;;;19.60;13.38;;;0.50;95.30;;;;;;5070147;28;20200;-74
2022/03/13 06:46:17;;;;;;;19.60;13.25;;;0.50;95.40;;;;;;5069691;28;20212;-73
2022/03/13 06:48:44;;;;;;;17.17;11.90;;;0.60;95.30;;;;;;5069148;28;20656;-74
2022/03/13 06:51:12;;;;;;;18.50;12.40;;;0.60;95.20;;;;;;5068535;28;20220;-74
2022/03/13 06:53:39;;;;;;;15.82;11.65;;;0.80;95.20;;;;;;5069530;28;20736;-75
2022/03/13 06:56:06;;;;;;;20.92;14.88;;;1.00;95.20;;;;;;5070365;28;20259;-75
2022/03/13 06:58:34;;;;;;;22.85;14.25;;;1.20;95.30;;;;;;5069511;28;20235;-75
2022/03/13 07:01:01;;;;;;;19.25;13.20;;;1.50;95.10;;;;;;5070593;28;20203;-75
2022/03/13 07:03:28;;;;;;;17.80;12.68;;;1.80;95.40;;;;;;5069587;28;20197;-75
2022/03/13 07:05:55;;;;;;;22.02;13.40;;;2.20;95.00;;;;;;5069515;28;20641;-76
2022/03/13 07:08:22;;;;;;;21.20;13.45;;;2.60;94.50;;;;;;5069433;28;20229;-75
2022/03/13 07:10:50;;;;;;;19.90;14.13;;;3.20;94.20;;;;;;5067513;28;20254;-75
2022/03/13 07:13:18;;;;;;;18.60;13.68;;;3.80;93.90;;;;;;5069930;28;20569;-75
2022/03/13 07:15:48;;;;;;;24.50;14.02;;;4.50;93.00;;;;;;5069515;28;20715;-75
2022/03/13 07:18:16;;;;;;;20.65;14.90;;;5.10;92.30;;;;;;5069455;28;20282;-75
2022/03/13 07:20:43;;;;;;;18.27;14.15;;;5.80;91.30;;;;;;5069603;28;20261;-75
2022/03/13 07:23:10;;;;;;;21.60;15.32;;;6.30;91.00;;;;;;5069916;28;20203;-75
2022/03/13 07:25:36;;;;;;;18.58;14.40;;;6.80;90.40;;;;;;5069302;28;20231;-75
2022/03/13 07:28:03;;;;;;;17.65;14.32;;;7.10;87.90;;;;;;5068974;28;20200;-75
2022/03/13 07:30:32;;;;;;;18.60;14.60;;;7.40;87.30;;;;;;5069755;28;20215;-75
2022/03/13 07:33:03;;;;;;;19.63;13.68;;;7.80;85.90;;;;;;5099894;22;20227;-92
2022/03/13 07:35:34;;;;;;;20.63;15.05;;;8.30;85.20;;;;;;5100607;28;20223;-93
2022/03/13 07:38:03;;;;;;;18.08;14.60;;;8.80;83.10;;;;;;5102882;27;20235;-92
2022/03/13 07:40:30;;;;;;;20.23;14.10;;;9.40;81.70;;;;;;5103538;27;20585;-93
2022/03/13 07:42:59;;;;;;;20.10;15.45;;;9.80;80.90;;;;;;5097250;28;20224;-94
2022/03/13 07:45:27;;;;;;;21.83;16.00;;;9.90;79.70;;;;;;5088278;28;20185;-93
2022/03/13 07:47:57;;;;;;;21.52;15.50;;;10.10;77.20;;;;;;5085540;28;20176;-93
2022/03/13 07:50:26;;;;;;;19.42;15.32;;;10.20;76.60;;;;;;5087301;28;20230;-93
2022/03/13 07:53:03;;;;;;;17.85;14.60;;;10.40;76.60;;;;;;5089881;28;20197;-94
2022/03/13 07:55:31;;;;;;;19.88;15.30;;;10.80;75.70;;;;;;5085539;28;20176;-94
2022/03/13 07:57:59;;;;;;;23.42;16.40;;;11.40;75.60;;;;;;5084823;28;20215;-93
2022/03/13 08:00:26;;;;;;;17.17;15.27;;;11.90;75.00;;;;;;5086586;28;20176;-93
2022/03/13 08:02:54;;;;;;;22.73;15.90;;;12.40;74.70;;;;;;5083192;28;20210;-93
2022/03/13 08:05:21;;;;;;;18.95;14.60;;;12.70;72.10;;;;;;5085616;28;20440;-93
2022/03/13 08:07:52;;;;;;;20.00;15.30;;;13.20;72.10;;;;;;5086934;28;20199;-94
2022/03/13 08:10:20;;;;;;;20.07;15.70;;;13.90;70.70;;;;;;5083389;28;20470;-93
2022/03/13 08:12:48;;;;;;;18.60;16.20;;;14.40;70.40;;;;;;5083972;28;20463;-93
2022/03/13 08:15:15;;;;;;;17.87;14.63;;;14.50;69.20;;;;;;5074187;22;20573;-76
2022/03/13 08:17:42;;;;;;;21.63;16.13;;;14.60;68.90;;;;;;5057725;28;20470;-76
2022/03/13 08:20:11;;;;;;;18.83;15.90;;;14.70;69.10;;;;;;5066443;28;20463;-76
2022/03/13 08:22:37;;;;;;;18.40;15.80;;;14.80;68.70;;;;;;5066678;28;20924;-76
2022/03/13 08:25:07;;;;;;;18.70;16.03;;;15.30;68.30;;;;;;5053752;28;20510;-76
2022/03/13 08:27:34;;;;;;;20.87;18.57;;;15.60;66.90;;;;;;5046282;28;20546;-76
2022/03/13 08:30:02;;;;;;;21.10;17.60;;;15.80;66.70;;;;;;5046685;28;20482;-76
2022/03/13 08:32:29;;;;;;;19.20;16.30;;;16.10;66.90;;;;;;5046240;28;20460;-76
2022/03/13 08:34:56;;;;;;;18.07;15.53;;;16.50;66.60;;;;;;5049882;28;20475;-77
2022/03/13 08:37:23;;;;;;;19.70;15.63;;;16.80;65.00;;;;;;5048357;28;20536;-76
2022/03/13 08:39:50;;;;;;;17.07;15.10;;;16.90;63.40;;;;;;5049245;28;20491;-77
2022/03/13 08:42:18;;;;;;;22.07;16.47;;;16.90;63.80;;;;;;5056185;28;21005;-77
2022/03/13 08:44:45;;;;;;;18.07;15.93;;;17.00;63.10;;;;;;5071506;28;20609;-77
2022/03/13 08:47:11;;;;;;;19.77;17.27;;;17.30;63.50;;;;;;5071226;28;20482;-77
2022/03/13 08:49:38;;;;;;;16.87;15.03;;;17.50;63.20;;;;;;5052542;28;20459;-77
2022/03/13 08:52:06;;;;;;;19.70;15.80;;;18.00;62.90;;;;;;5063627;28;20467;-77
2022/03/13 08:54:32;;;;;;;18.43;16.40;;;18.60;62.20;;;;;;5051348;28;20498;-77
2022/03/13 08:56:59;;;;;;;18.17;15.77;;;19.30;60.30;;;;;;5051350;28;20474;-77
2022/03/13 08:59:28;;;;;;;18.60;15.53;;;19.90;60.20;;;;;;5052727;28;20527;-77
2022/03/13 09:01:54;;;;;;;17.07;15.43;;;20.00;60.50;;;;;;5050757;28;20515;-77
2022/03/13 09:04:21;;;;;;;18.30;15.73;;;20.10;59.80;;;;;;5051792;28;21052;-77
2022/03/13 09:06:49;;;;;;;18.80;16.63;;;20.10;59.50;;;;;;5050528;28;20460;-77
2022/03/13 09:09:18;;;;;;;17.37;15.57;;;19.90;59.40;;;;;;5051940;28;20460;-77
2022/03/13 09:11:47;;;;;;;18.23;16.37;;;20.70;59.10;;;;;;5059021;28;20499;-77
2022/03/13 09:14:13;;;;;;;20.27;17.53;;;21.00;58.70;;;;;;5052759;28;20506;-77
2022/03/13 09:16:43;;;;;;;19.23;17.07;;;21.30;57.50;;;;;;5051340;28;20463;-77
2022/03/13 09:19:10;;;;;;;18.60;16.60;;;21.30;57.90;;;;;;5052929;28;20994;-77
2022/03/13 09:21:38;;;;;;;20.70;17.37;;;21.30;58.40;;;;;;5074598;28;20469;-77
2022/03/13 09:24:07;;;;;;;20.23;17.17;;;21.60;57.70;;;;;;5053916;28;20526;-78
2022/03/13 09:26:35;;;;;;;18.10;16.00;;;21.70;57.30;;;;;;5049510;28;20502;-75
2022/03/13 09:29:02;;;;;;;19.30;17.07;;;21.40;56.80;;;;;;5049743;28;20491;-76
2022/03/13 09:31:29;;;;;;;18.57;16.67;;;22.00;57.40;;;;;;5062349;28;20471;-77
2022/03/13 09:33:57;;;;;;;19.23;17.23;;;22.50;56.80;;;;;;5050869;28;20471;-77
2022/03/13 09:36:24;;;;;;;17.60;15.80;;;22.60;56.20;;;;;;5048942;28;20468;-77
2022/03/13 09:38:51;;;;;;;18.60;16.47;;;22.40;56.40;;;;;;5048606;28;20487;-77
2022/03/13 09:41:18;;;;;;;19.40;16.50;;;23.00;55.80;;;;;;5050167;28;20471;-76
2022/03/13 09:43:45;;;;;;;18.97;17.07;;;23.40;55.60;;;;;;5048900;28;20487;-78
2022/03/13 09:46:12;;;;;;;18.83;16.60;;;23.90;55.40;;;;;;5049525;28;20539;-76
2022/03/13 09:48:39;;;;;;;17.50;15.67;;;24.00;55.10;;;;;;5052668;28;20466;-74
2022/03/13 09:51:09;;;;;;;17.57;15.87;;;24.50;54.60;;;;;;5049431;28;20495;-76
2022/03/13 09:53:36;;;;;;;16.57;14.87;;;24.70;54.60;;;;;;5048300;28;20896;-75
2022/03/13 09:56:05;;;;;;;17.47;15.03;;;25.20;54.50;;;;;;5047876;28;20475;-76
2022/03/13 09:58:33;;;;;;;17.53;15.83;;;25.20;53.80;;;;;;5047394;28;20463;-76
2022/03/13 10:01:00;;;;;;;17.50;15.80;;;25.50;53.30;;;;;;5048705;28;20569;-76
2022/03/13 10:03:27;;;;;;;18.30;15.80;;;26.00;53.20;;;;;;5048058;28;20494;-76
2022/03/13 10:05:55;;;;;;;16.23;14.53;;;26.00;53.80;;;;;;5068257;28;20474;-78
2022/03/13 10:08:29;;;;;;;19.47;17.50;;;26.60;51.60;;;;;;5070472;28;20481;-74
2022/03/13 10:10:57;;;;;;;18.73;16.80;;;26.30;52.40;;;;;;5071098;28;20545;-77
2022/03/13 10:13:40;;;;;;;18.93;17.00;;;26.60;52.00;;;;;;5071873;28;20465;-76
2022/03/13 10:16:09;;;;;;;18.43;16.53;;;27.40;51.90;;;;;;5071371;28;20482;-77
2022/03/13 10:18:36;;;;;;;17.70;15.90;;;27.40;50.00;;;;;;5073061;28;20463;-76
2022/03/13 10:21:11;;;;;;;17.00;15.23;;;27.90;50.40;;;;;;5075080;28;20842;-78
2022/03/13 10:23:39;;;;;;;19.93;17.87;;;27.10;50.30;;;;;;5072918;28;20482;-76
2022/03/13 10:26:06;;;;;;;19.10;17.30;;;26.10;50.50;;;;;;5072407;28;20481;-77
2022/03/13 10:28:34;;;;;;;18.27;16.40;;;26.20;51.60;;;;;;5072301;28;20840;-77
2022/03/13 10:31:15;;;;;;;19.07;17.07;;;27.00;51.30;;;;;;5070818;28;20517;-77
2022/03/13 10:33:57;;;;;;;18.23;16.43;;;27.70;50.50;;;;;;5067343;28;20497;-77
2022/03/13 10:36:31;;;;;;;19.43;17.53;;;27.50;49.90;;;;;;5072967;28;21124;-77
2022/03/13 10:39:02;;;;;;;18.53;16.53;;;27.30;48.80;;;;;;5074604;28;20830;-77
2022/03/13 10:41:42;;;;;;;20.00;17.97;;;28.00;49.10;;;;;;5073694;28;20811;-78
2022/03/13 10:44:13;;;;;;;19.73;17.63;;;28.00;48.80;;;;;;5070680;28;20508;-78
2022/03/13 10:46:42;;;;;;;19.33;17.33;;;28.50;47.50;;;;;;5070065;28;20463;-78
2022/03/13 10:49:09;;;;;;;19.60;17.50;;;28.00;46.60;;;;;;5070974;28;20459;-78
2022/03/13 10:51:38;;;;;;;19.03;17.03;;;27.70;48.40;;;;;;5070895;28;20534;-77
2022/03/13 10:54:07;;;;;;;20.17;18.17;;;27.90;48.00;;;;;;5060055;28;20497;-77
2022/03/13 10:56:34;;;;;;;20.73;17.77;;;28.60;47.60;;;;;;5072921;28;20474;-77
2022/03/13 10:59:15;;;;;;;19.70;17.70;;;28.30;48.40;;;;;;5073693;28;20463;-77
2022/03/13 11:01:42;;;;;;;18.93;17.03;;;28.30;48.30;;;;;;5065680;28;20577;-77
2022/03/13 11:04:10;;;;;;;19.97;17.87;;;28.50;48.60;;;;;;5049515;28;20476;-77
2022/03/13 11:06:36;;;;;;;19.93;17.87;;;28.50;47.20;;;;;;5049974;28;20467;-77
2022/03/13 11:09:03;;;;;;;20.73;18.60;;;28.70;48.00;;;;;;5067289;28;20466;-77
2022/03/13 11:11:32;;;;;;;19.23;17.33;;;28.80;47.60;;;;;;5068006;28;20965;-77
2022/03/13 11:14:01;;;;;;;19.40;17.40;;;28.40;47.90;;;;;;5067960;28;20472;-76
2022/03/13 11:16:29;;;;;;;20.50;18.60;;;28.50;47.80;;;;;;5056010;28;20467;-76
2022/03/13 11:19:02;;;;;;;18.80;16.80;;;28.40;48.50;;;;;;5047307;28;20467;-76
2022/03/13 11:21:30;;;;;;;20.83;18.60;;;28.70;47.70;;;;;;5047754;28;20572;-76
2022/03/13 11:23:57;;;;;;;19.40;17.47;;;28.90;46.50;;;;;;5056700;28;20833;-79
2022/03/13 11:26:30;;;;;;;20.90;18.90;;;28.80;47.90;;;;;;5068136;28;20458;-76
2022/03/13 11:29:00;;;;;;;20.70;18.10;;;29.30;46.80;;;;;;5069123;28;20458;-76
2022/03/13 11:31:31;;;;;;;19.20;17.27;;;28.30;45.70;;;;;;5068061;28;20470;-77
2022/03/13 11:34:13;;;;;;;20.10;18.10;;;27.90;48.10;;;;;;5062900;28;20522;-76
2022/03/13 11:36:41;;;;;;;19.10;16.77;;;28.00;47.50;;;;;;5048652;28;20521;-76
2022/03/13 11:39:09;;;;;;;21.57;19.20;;;28.30;47.10;;;;;;5048299;28;20521;-77
2022/03/13 11:41:39;;;;;;;20.00;18.00;;;27.90;46.60;;;;;;5061434;28;20467;-77
2022/03/13 11:44:37;;;;;;;18.87;17.03;;;27.20;49.30;;;;;;5069337;28;20474;-78
2022/03/13 11:47:24;;;;;;;20.50;18.43;;;27.80;48.80;;;;;;5070284;28;20543;-78
2022/03/13 11:49:51;;;;;;;20.27;18.27;;;28.40;46.90;;;;;;5069886;28;20458;-78
2022/03/13 11:52:30;;;;;;;26.27;18.60;;;28.50;47.50;;;;;;5061747;28;20456;-76
2022/03/13 11:54:59;;;;;;;20.63;18.50;;;28.40;47.30;;;;;;5049933;28;20556;-78
2022/03/13 11:57:27;;;;;;;21.37;19.07;;;28.40;46.40;;;;;;5049691;28;20994;-77
2022/03/13 12:02:47;;;;;;;20.43;18.30;;;28.90;46.20;;;;;;5105185;27;20913;-76
2022/03/13 12:05:30;;;;;;;21.73;18.10;;;28.00;46.50;;;;;;5105866;28;20480;-77
2022/03/13 12:08:04;;;;;;;19.50;17.53;;;27.40;47.00;;;;;;5104208;28;20467;-77
2022/03/13 12:10:34;;;;;;;20.67;18.47;;;27.30;47.00;;;;;;5105708;28;20469;-77
2022/03/13 12:13:04;;;;;;;19.67;17.27;;;27.20;48.10;;;;;;5105159;28;20468;-76
2022/03/13 12:15:30;;;;;;;20.30;18.23;;;27.20;47.30;;;;;;5104255;28;20533;-77
2022/03/13 12:17:58;;;;;;;20.43;18.40;;;26.80;48.60;;;;;;5104199;28;20465;-77
2022/03/13 12:20:28;;;;;;;21.43;19.20;;;27.10;47.20;;;;;;5105356;28;20461;-77
2022/03/13 12:22:56;;;;;;;19.50;16.90;;;27.00;48.00;;;;;;5104905;28;21824;-77
2022/03/13 12:25:25;;;;;;;19.07;17.07;;;27.20;47.60;;;;;;5104244;28;20481;-76
2022/03/13 12:27:52;;;;;;;19.37;17.10;;;27.60;48.20;;;;;;5104202;28;20821;-77
2022/03/13 12:30:25;;;;;;;19.57;17.73;;;28.10;47.70;;;;;;5104764;28;20461;-79
2022/03/13 12:32:59;;;;;;;20.33;17.20;;;28.60;46.40;;;;;;5107630;28;20496;-78
2022/03/13 12:35:26;;;;;;;19.40;17.40;;;28.20;46.20;;;;;;5106861;28;20469;-77
2022/03/13 12:37:55;;;;;;;19.63;16.40;;;28.20;46.00;;;;;;5102550;28;20463;-76
2022/03/13 12:40:24;;;;;;;21.10;18.97;;;27.80;46.60;;;;;;5099374;28;20475;-77